Time;durP1;ratioP1;P1;durP2;ratioP2;P2;SDS_P1;SDS_P2;PMS_P1;PMS_P2;Temp;Humidity;BMP_temperature;BMP_pressure;BME280_temperature;BME280_humidity;BME280_pressure;Samples;Min_cycle;Max_cycle;Signal;HPM_P1;HPM_P2
2023/11/14 00:00:12;;;;;;;;;1.00;1.00;;;;;17.74;100.00;100497.94;2106392;28;46431;-51
2023/11/14 00:01:13;;;;;;;;;6.00;3.67;;;;;17.74;100.00;100495.25;2091734;28;47771;-50
2023/11/14 00:02:14;;;;;;;;;2.00;2.00;;;;;17.74;100.00;100490.75;2092249;28;45209;-47
2023/11/14 00:03:14;;;;;;;;;1.33;1.00;;;;;17.73;100.00;100485.47;2103094;28;47502;-52
2023/11/14 00:04:15;;;;;;;;;1.00;0.00;;;;;17.74;100.00;100484.50;2104421;27;46394;-50
2023/11/14 00:05:16;;;;;;;;;1.33;0.67;;;;;17.73;100.00;100483.66;2105642;28;46729;-51
2023/11/14 00:06:17;;;;;;;;;3.75;1.50;;;;;17.73;100.00;100482.78;2105709;28;46384;-47
2023/11/14 00:07:17;;;;;;;;;2.00;1.00;;;;;17.72;100.00;100484.59;2105604;28;46487;-48
2023/11/14 00:08:17;;;;;;;;;2.00;1.00;;;;;17.71;100.00;100480.19;2105433;28;46808;-52
2023/11/14 00:09:18;;;;;;;;;2.00;1.33;;;;;17.72;100.00;100478.38;2106180;28;46640;-49
2023/11/14 00:10:18;;;;;;;;;2.00;0.00;;;;;17.71;100.00;100485.56;2105877;28;46174;-51
2023/11/14 00:11:18;;;;;;;;;1.67;1.00;;;;;17.69;100.00;100482.09;2096847;28;46061;-51
2023/11/14 00:12:21;;;;;;;;;0.00;0.00;;;;;17.69;100.00;100484.78;2071255;28;46298;-46
2023/11/14 00:13:22;;;;;;;;;2.25;1.00;;;;;17.68;100.00;100485.69;2080255;28;46895;-50
2023/11/14 00:14:23;;;;;;;;;2.67;1.33;;;;;17.70;100.00;100491.00;2105630;28;47011;-50
2023/11/14 00:15:24;;;;;;;;;1.00;1.00;;;;;17.71;100.00;100495.44;2106188;28;46531;-47
2023/11/14 00:16:25;;;;;;;;;4.00;3.00;;;;;17.72;100.00;100497.16;2105719;28;46857;-48
2023/11/14 00:17:25;;;;;;;;;2.00;2.00;;;;;17.72;100.00;100494.47;2102998;28;46636;-48
2023/11/14 00:18:25;;;;;;;;;3.33;3.00;;;;;17.61;100.00;100485.16;2097008;28;46875;-49
2023/11/14 00:19:26;;;;;;;;;1.00;1.00;;;;;17.70;100.00;100485.63;2101796;28;46964;-48
2023/11/14 00:20:27;;;;;;;;;0.00;0.00;;;;;17.70;100.00;100483.81;2104323;27;46802;-49
2023/11/14 00:21:27;;;;;;;;;3.33;1.00;;;;;17.71;100.00;100490.91;2105334;28;46338;-49
2023/11/14 00:22:27;;;;;;;;;2.00;0.67;;;;;17.70;100.00;100483.81;2088241;28;46669;-49
2023/11/14 00:23:28;;;;;;;;;1.00;0.67;;;;;17.71;100.00;100490.91;2088403;28;46878;-51
2023/11/14 00:24:28;;;;;;;;;3.00;1.00;;;;;17.70;100.00;100477.59;2105402;28;46259;-47
2023/11/14 00:25:29;;;;;;;;;1.00;1.00;;;;;17.71;100.00;100487.38;2105793;28;45869;-47
2023/11/14 00:26:29;;;;;;;;;0.00;0.00;;;;;17.70;100.00;100481.13;2105603;28;46480;-48
2023/11/14 00:27:29;;;;;;;;;1.33;1.33;;;;;17.71;100.00;100482.88;2105553;28;46338;-49
2023/11/14 00:28:31;;;;;;;;;5.00;5.00;;;;;17.71;100.00;100479.31;2103386;28;46656;-49
2023/11/14 00:29:31;;;;;;;;;2.25;2.00;;;;;17.69;100.00;100482.09;2105921;28;46818;-47
2023/11/14 00:30:32;;;;;;;;;0.67;0.67;;;;;17.65;100.00;100483.16;2105604;28;46436;-47
2023/11/14 00:31:32;;;;;;;;;0.67;0.67;;;;;17.62;100.00;100473.47;2105203;28;46617;-52
2023/11/14 00:32:32;;;;;;;;;2.33;1.00;;;;;17.62;100.00;100475.28;2105454;28;46598;-51
2023/11/14 00:33:33;;;;;;;;;1.00;1.00;;;;;17.68;100.00;100479.47;2094140;28;46678;-51
2023/11/14 00:34:33;;;;;;;;;0.00;0.00;;;;;17.70;100.00;100493.69;2096752;28;46841;-49
2023/11/14 00:35:34;;;;;;;;;1.00;1.00;;;;;17.70;100.00;100491.00;2099313;28;46206;-52
2023/11/14 00:36:34;;;;;;;;;3.00;1.67;;;;;17.70;100.00;100488.31;2100157;28;46332;-49
2023/11/14 00:37:34;;;;;;;;;2.00;1.00;;;;;17.68;100.00;100487.50;2104510;27;46445;-49
2023/11/14 00:38:35;;;;;;;;;1.00;1.00;;;;;17.71;100.00;100492.75;2095913;28;46589;-49
2023/11/14 00:39:36;;;;;;;;;1.00;1.00;;;;;17.59;100.00;100492.41;2095971;28;46336;-49
2023/11/14 00:40:38;;;;;;;;;2.33;0.00;;;;;17.65;100.00;100489.38;2105590;28;46872;-47
2023/11/14 00:41:39;;;;;;;;;1.25;0.25;;;;;17.67;100.00;100496.50;2105537;28;46409;-46
2023/11/14 00:42:39;;;;;;;;;2.33;1.00;;;;;17.67;100.00;100496.50;2105666;27;46832;-49
2023/11/14 00:43:39;;;;;;;;;5.00;2.00;;;;;17.67;100.00;100494.69;2103353;27;46263;-47
2023/11/14 00:44:40;;;;;;;;;2.33;1.00;;;;;17.68;100.00;100498.25;2105654;28;46296;-46
2023/11/14 00:45:41;;;;;;;;;5.00;3.00;;;;;17.69;100.00;100491.97;2105489;27;46565;-50
2023/11/14 00:46:41;;;;;;;;;3.00;2.00;;;;;17.68;100.00;100495.56;2105166;28;46566;-48
2023/11/14 00:47:42;;;;;;;;;3.33;1.33;;;;;17.67;100.00;100502.75;2105619;28;46798;-51
2023/11/14 00:48:46;;;;;;;;;1.33;1.33;;;;;17.66;100.00;100498.34;2105304;28;46589;-52
2023/11/14 00:49:46;;;;;;;;;1.00;1.00;;;;;17.65;100.00;100497.44;2105178;28;46971;-49
2023/11/14 00:50:47;;;;;;;;;1.33;1.33;;;;;17.65;100.00;100493.88;2105578;28;46259;-51
2023/11/14 00:51:47;;;;;;;;;0.33;0.33;;;;;17.64;100.00;100484.09;2105621;28;46529;-51
2023/11/14 00:52:47;;;;;;;;;2.00;2.00;;;;;17.63;100.00;100479.69;2105311;28;46235;-53
2023/11/14 00:53:51;;;;;;;;;1.00;1.00;;;;;17.62;100.00;100481.50;2105311;28;46441;-50
2023/11/14 00:54:51;;;;;;;;;2.25;1.00;;;;;17.62;100.00;100486.00;2101811;28;46807;-58
2023/11/14 00:55:52;;;;;;;;;2.00;2.00;;;;;17.62;100.00;100483.31;2104363;28;46475;-48
2023/11/14 00:56:53;;;;;;;;;3.00;1.67;;;;;17.61;100.00;100478.91;2105346;28;45737;-51
2023/11/14 00:57:53;;;;;;;;;3.25;1.50;;;;;17.61;100.00;100481.59;2104499;28;46413;-54
2023/11/14 00:58:54;;;;;;;;;1.00;1.00;;;;;17.60;100.00;100480.72;2105713;28;45151;-51
2023/11/14 00:59:54;;;;;;;;;3.00;1.00;;;;;17.60;100.00;100467.31;2105404;28;46432;-50
2023/11/14 01:00:55;;;;;;;;;1.00;1.00;;;;;17.63;100.00;100477.88;2104945;28;47235;-51
2023/11/14 01:01:58;;;;;;;;;1.00;1.00;;;;;17.63;100.00;100483.25;2105602;28;46488;-49
2023/11/14 01:03:00;;;;;;;;;3.00;1.00;;;;;17.63;100.00;100493.09;2105261;28;46242;-48
2023/11/14 01:04:01;;;;;;;;;1.00;1.00;;;;;17.59;100.00;100507.66;2105438;28;46386;-50
2023/11/14 01:05:03;;;;;;;;;4.25;1.00;;;;;17.59;100.00;100510.34;2105575;28;46857;-50
2023/11/14 01:06:05;;;;;;;;;1.00;1.00;;;;;17.58;100.00;100506.78;2105803;28;46291;-51
2023/11/14 01:07:07;;;;;;;;;2.00;0.50;;;;;17.57;100.00;100513.09;2098925;28;46116;-51
2023/11/14 01:08:07;;;;;;;;;3.25;2.00;;;;;17.55;100.00;100506.09;2105500;28;46935;-47
2023/11/14 01:09:09;;;;;;;;;0.33;0.33;;;;;17.56;100.00;100510.50;2105278;28;46246;-47
2023/11/14 01:10:11;;;;;;;;;2.75;1.50;;;;;17.54;100.00;100515.09;2105026;28;46785;-50
2023/11/14 01:11:11;;;;;;;;;2.25;0.50;;;;;17.56;100.00;100516.75;2105352;28;46301;-48
2023/11/14 01:12:11;;;;;;;;;4.00;1.00;;;;;17.57;100.00;100522.97;2105132;28;47212;-50
2023/11/14 01:13:12;;;;;;;;;5.00;2.00;;;;;17.56;100.00;100526.59;2103863;27;46923;-52
2023/11/14 01:14:12;;;;;;;;;1.00;1.00;;;;;17.56;100.00;100523.94;2105344;28;46449;-52
2023/11/14 01:15:13;;;;;;;;;4.33;2.00;;;;;17.54;100.00;100515.97;2096652;28;46548;-45
2023/11/14 01:16:16;;;;;;;;;3.00;1.33;;;;;17.53;100.00;100532.13;2096534;28;47086;-50
2023/11/14 01:17:17;;;;;;;;;4.75;4.25;;;;;17.53;100.00;100526.75;2105189;28;46946;-47
2023/11/14 01:18:17;;;;;;;;;6.00;6.00;;;;;17.53;100.00;100545.53;2104780;28;46509;-48
2023/11/14 01:19:18;;;;;;;;;9.00;7.00;;;;;17.54;100.00;100542.78;2105323;28;46607;-50
2023/11/14 01:20:19;;;;;;;;;15.20;12.00;;;;;17.53;100.00;100542.84;2105097;28;46762;-49
2023/11/14 01:21:19;;;;;;;;;42.50;37.00;;;;;17.53;100.00;100546.44;2105015;28;46552;-50
2023/11/14 01:22:20;;;;;;;;;48.75;39.00;;;;;17.54;100.00;100549.97;2105200;28;46098;-48
2023/11/14 01:23:20;;;;;;;;;16.25;14.50;;;;;17.49;100.00;100552.03;2105529;28;46766;-47
2023/11/14 01:24:21;;;;;;;;;7.75;7.75;;;;;17.48;100.00;100555.66;2086352;28;46630;-50
2023/11/14 01:25:21;;;;;;;;;7.50;6.25;;;;;17.46;100.00;100552.19;2087983;28;47132;-50
2023/11/14 01:26:21;;;;;;;;;5.67;5.67;;;;;17.46;100.00;100550.38;2102736;28;45998;-53
2023/11/14 01:27:22;;;;;;;;;21.25;19.50;;;;;17.50;100.00;100562.66;2104643;28;46244;-53
2023/11/14 01:28:22;;;;;;;;;3.00;3.00;;;;;17.46;100.00;100565.59;2105891;28;46627;-52
2023/11/14 01:29:22;;;;;;;;;4.00;3.33;;;;;17.50;100.00;100572.53;2105237;28;45513;-51
2023/11/14 01:30:23;;;;;;;;;5.67;4.33;;;;;17.43;100.00;100573.81;2105439;28;46502;-51
2023/11/14 01:31:23;;;;;;;;;0.33;0.33;;;;;17.52;100.00;100578.69;2104061;28;46812;-49
2023/11/14 01:32:23;;;;;;;;;12.75;9.75;;;;;17.50;100.00;100577.91;2104453;28;45834;-50
2023/11/14 01:33:24;;;;;;;;;6.67;6.00;;;;;17.51;100.00;100568.91;2104895;28;46643;-50
2023/11/14 01:34:25;;;;;;;;;12.75;12.75;;;;;17.51;100.00;100563.53;2105310;28;46285;-48
2023/11/14 01:35:26;;;;;;;;;4.50;2.75;;;;;17.52;100.00;100563.44;2096303;28;46548;-48
2023/11/14 01:36:26;;;;;;;;;3.33;3.00;;;;;17.51;100.00;100563.53;2096333;28;45424;-50
2023/11/14 01:37:26;;;;;;;;;3.67;3.00;;;;;17.50;100.00;100577.91;2105357;28;46129;-49
2023/11/14 01:38:27;;;;;;;;;5.00;3.00;;;;;17.49;100.00;100579.72;2105129;28;46435;-46
2023/11/14 01:39:29;;;;;;;;;3.33;3.33;;;;;17.49;100.00;100581.53;2105280;28;46211;-49
2023/11/14 01:40:29;;;;;;;;;5.00;2.75;;;;;17.48;100.00;100571.75;2105201;28;46451;-51
2023/11/14 01:41:29;;;;;;;;;2.67;1.67;;;;;17.46;100.00;100568.28;2105198;28;46587;-48
2023/11/14 01:42:30;;;;;;;;;3.00;3.00;;;;;17.48;100.00;100580.66;2105203;28;46228;-48
2023/11/14 01:43:40;;;;;;;;;11.50;9.00;;;;;17.48;100.00;100586.03;2103724;28;46495;-52
2023/11/14 01:44:40;;;;;;;;;4.50;4.00;;;;;17.46;100.00;100576.34;2103152;28;47006;-49
2023/11/14 01:45:41;;;;;;;;;2.00;2.00;;;;;17.47;100.00;100570.88;2105750;28;46207;-54
2023/11/14 01:46:41;;;;;;;;;7.75;7.50;;;;;17.47;100.00;100572.69;2104242;27;45571;-49
2023/11/14 01:47:46;;;;;;;;;4.67;3.00;;;;;17.48;100.00;100567.25;2105105;28;46503;-52
2023/11/14 01:48:52;;;;;;;;;9.75;8.25;;;;;17.49;100.00;100576.16;2105160;28;45739;-47
2023/11/14 01:49:53;;;;;;;;;2.50;2.50;;;;;17.49;100.00;100577.03;2098620;28;46409;-50
2023/11/14 01:50:53;;;;;;;;;5.33;4.00;;;;;17.49;100.00;100576.16;2104986;28;48038;-54
2023/11/14 01:51:54;;;;;;;;;5.67;4.67;;;;;17.49;100.00;100576.16;2104827;28;47139;-51
2023/11/14 01:52:54;;;;;;;;;4.33;3.67;;;;;17.47;100.00;100578.94;2102442;27;46395;-51
2023/11/14 01:53:55;;;;;;;;;3.67;2.00;;;;;17.46;100.00;100577.19;2105041;28;46003;-53
2023/11/14 01:54:56;;;;;;;;;4.00;3.67;;;;;17.46;100.00;100579.88;2104618;28;46760;-49
2023/11/14 01:55:56;;;;;;;;;1.33;1.33;;;;;17.46;100.00;100576.34;2105268;28;46670;-53
2023/11/14 01:56:58;;;;;;;;;3.67;3.67;;;;;17.46;100.00;100565.59;2105024;28;46631;-50
2023/11/14 01:57:58;;;;;;;;;2.00;2.00;;;;;17.46;100.00;100563.78;2095953;28;46459;-50
2023/11/14 01:58:59;;;;;;;;;2.00;2.00;;;;;17.45;100.00;100558.50;2095843;28;46791;-52
2023/11/14 02:00:01;;;;;;;;;3.00;2.00;;;;;17.45;100.00;100563.88;2099944;28;47091;-53
2023/11/14 02:01:02;;;;;;;;;1.75;1.50;;;;;17.46;100.00;100554.88;2103066;28;46686;-49
2023/11/14 02:02:04;;;;;;;;;1.50;1.50;;;;;17.46;100.00;100549.50;2098502;27;46337;-52
2023/11/14 02:03:04;;;;;;;;;2.25;1.00;;;;;17.46;100.00;100552.19;2105330;28;46653;-55
2023/11/14 02:04:10;;;;;;;;;12.00;10.50;;;;;17.46;100.00;100553.06;2105096;28;46813;-51
2023/11/14 02:05:10;;;;;;;;;3.00;2.00;;;;;17.46;100.00;100554.88;2104978;28;46392;-54
2023/11/14 02:06:11;;;;;;;;;2.67;2.00;;;;;17.47;100.00;100551.25;2104885;28;46368;-46
2023/11/14 02:07:12;;;;;;;;;8.00;4.00;;;;;17.46;100.00;100555.72;2105158;28;46438;-50
2023/11/14 02:08:12;;;;;;;;;2.00;1.00;;;;;17.47;100.00;100553.91;2095885;28;46444;-52
2023/11/14 02:09:12;;;;;;;;;2.00;2.00;;;;;17.45;100.00;100562.06;2103195;28;46863;-52
2023/11/14 02:10:13;;;;;;;;;1.00;1.00;;;;;17.44;100.00;100573.72;2101115;28;46328;-47
2023/11/14 02:11:13;;;;;;;;;4.00;1.00;;;;;17.45;100.00;100571.91;2105046;28;46348;-51
2023/11/14 02:12:14;;;;;;;;;0.00;0.00;;;;;17.44;100.00;100570.19;2099020;28;46300;-52
2023/11/14 02:13:14;;;;;;;;;1.00;1.00;;;;;17.42;100.00;100574.78;2101647;28;46333;-52
2023/11/14 02:14:15;;;;;;;;;1.00;1.00;;;;;17.40;100.00;100588.22;2104630;28;46715;-49
2023/11/14 02:15:15;;;;;;;;;4.33;4.33;;;;;17.39;100.00;100581.13;2096311;28;46429;-52
2023/11/14 02:16:15;;;;;;;;;1.67;0.33;;;;;17.38;100.00;100584.75;2096209;28;46485;-49
2023/11/14 02:17:16;;;;;;;;;1.00;1.00;;;;;17.39;100.00;100577.59;2086608;28;46593;-49
2023/11/14 02:18:19;;;;;;;;;3.00;2.00;;;;;17.39;100.00;100572.22;2078754;28;46408;-49
2023/11/14 02:19:19;;;;;;;;;0.50;0.00;;;;;17.38;100.00;100579.41;2069770;28;46520;-48
2023/11/14 02:20:20;;;;;;;;;1.33;1.00;;;;;17.39;100.00;100580.28;2078038;28;46366;-50
2023/11/14 02:21:21;;;;;;;;;0.00;0.00;;;;;17.38;100.00;100575.84;2105020;28;46516;-51
2023/11/14 02:22:22;;;;;;;;;2.75;1.75;;;;;17.39;100.00;100570.41;2095775;28;46274;-48
2023/11/14 02:23:26;;;;;;;;;2.00;2.00;;;;;17.41;100.00;100568.53;2095951;28;45900;-48
2023/11/14 02:24:28;;;;;;;;;1.75;1.00;;;;;17.41;100.00;100567.66;2102771;28;46967;-48
2023/11/14 02:25:29;;;;;;;;;3.75;1.25;;;;;17.42;100.00;100572.09;2096299;28;46377;-48
2023/11/14 02:26:29;;;;;;;;;4.00;1.00;;;;;17.43;100.00;100579.19;2103633;28;46442;-45
2023/11/14 02:27:29;;;;;;;;;2.67;1.00;;;;;17.40;100.00;100577.50;2104439;28;46625;-52
2023/11/14 02:28:30;;;;;;;;;2.33;1.00;;;;;17.40;100.00;100577.50;2104800;28;46314;-49
2023/11/14 02:29:31;;;;;;;;;2.67;2.00;;;;;17.42;100.00;100580.13;2101249;28;46268;-53
2023/11/14 02:30:32;;;;;;;;;2.00;2.00;;;;;17.41;100.00;100576.59;2104769;28;46762;-46
2023/11/14 02:31:33;;;;;;;;;1.00;0.67;;;;;17.37;100.00;100572.31;2105092;28;46638;-49
2023/11/14 02:32:33;;;;;;;;;1.00;1.00;;;;;17.41;100.00;100557.81;2095748;28;45082;-49
2023/11/14 02:33:37;;;;;;;;;2.33;2.33;;;;;17.36;100.00;100562.53;2095956;28;46263;-49
2023/11/14 02:34:38;;;;;;;;;2.33;1.00;;;;;17.39;100.00;100565.03;2095553;28;46596;-49
2023/11/14 02:35:38;;;;;;;;;5.00;2.00;;;;;17.41;100.00;100565.00;2096004;28;46304;-47
2023/11/14 02:36:39;;;;;;;;;3.33;1.33;;;;;17.44;100.00;100567.50;2102442;28;46780;-49
2023/11/14 02:37:40;;;;;;;;;3.25;1.50;;;;;17.43;100.00;100563.94;2096155;28;46493;-48
2023/11/14 02:38:40;;;;;;;;;4.00;1.33;;;;;17.42;100.00;100559.53;2104606;28;46255;-50
2023/11/14 02:39:40;;;;;;;;;2.67;1.67;;;;;17.40;100.00;100566.78;2104618;28;46735;-52
2023/11/14 02:40:45;;;;;;;;;5.33;0.00;;;;;17.40;100.00;100572.13;2101202;27;46608;-52
2023/11/14 02:41:45;;;;;;;;;2.50;1.75;;;;;17.40;100.00;100569.44;2104299;28;46456;-51
2023/11/14 02:42:45;;;;;;;;;0.33;0.33;;;;;17.41;100.00;100584.63;2096713;28;46356;-49
2023/11/14 02:43:46;;;;;;;;;3.33;1.00;;;;;17.41;100.00;100573.03;2102439;27;46847;-47
2023/11/14 02:44:46;;;;;;;;;2.00;1.00;;;;;17.41;100.00;100565.00;2104810;28;46645;-48
2023/11/14 02:45:46;;;;;;;;;3.00;1.00;;;;;17.41;100.00;100563.16;2097890;28;46565;-48
2023/11/14 02:46:47;;;;;;;;;3.00;1.00;;;;;17.41;100.00;100575.72;2098126;28;46649;-49
2023/11/14 02:47:48;;;;;;;;;3.33;2.00;;;;;17.39;100.00;100574.91;2104516;28;46835;-52
2023/11/14 02:48:49;;;;;;;;;3.00;1.00;;;;;17.36;100.00;100576.81;2104903;28;46753;-48
2023/11/14 02:50:17;;;;;;;;;0.67;0.33;;;;;17.35;100.00;100577.75;2104749;28;46727;-51
2023/11/14 02:51:18;;;;;;;;;1.25;1.25;;;;;17.36;100.00;100578.63;2102896;28;46560;-50
2023/11/14 02:52:18;;;;;;;;;3.00;1.33;;;;;17.38;100.00;100575.84;2103014;28;46716;-51
2023/11/14 02:53:20;;;;;;;;;3.67;0.00;;;;;17.39;100.00;100582.94;2104609;27;46824;-48
2023/11/14 02:54:20;;;;;;;;;4.00;2.00;;;;;17.39;100.00;100578.44;2104867;28;46657;-50
2023/11/14 02:55:21;;;;;;;;;0.00;0.00;;;;;17.37;100.00;100585.72;2103126;27;46565;-50
2023/11/14 02:56:21;;;;;;;;;2.00;1.00;;;;;17.39;100.00;100581.13;2104706;28;45276;-47
2023/11/14 02:57:22;;;;;;;;;2.00;2.00;;;;;17.41;100.00;100581.94;2105150;28;46347;-48
2023/11/14 02:58:22;;;;;;;;;1.00;0.33;;;;;17.42;100.00;100580.13;2104586;28;46294;-50
2023/11/14 02:59:22;;;;;;;;;1.00;1.00;;;;;17.42;100.00;100583.69;2104604;28;46470;-49
2023/11/14 03:00:23;;;;;;;;;1.00;0.00;;;;;17.41;100.00;100579.28;2097159;28;46294;-47
2023/11/14 03:01:26;;;;;;;;;3.33;1.00;;;;;17.40;100.00;100588.22;2102202;28;45548;-50
2023/11/14 03:02:26;;;;;;;;;3.50;2.75;;;;;17.41;100.00;100587.31;2087456;28;47391;-50
2023/11/14 03:03:27;;;;;;;;;3.67;1.00;;;;;17.41;100.00;100592.69;2095499;28;46494;-52
2023/11/14 03:04:27;;;;;;;;;1.67;0.00;;;;;17.40;100.00;100588.22;2104560;28;46138;-48
2023/11/14 03:05:28;;;;;;;;;2.00;1.00;;;;;17.38;100.00;100587.44;2104892;28;46272;-48
2023/11/14 03:06:29;;;;;;;;;1.00;1.00;;;;;17.35;100.00;100577.75;2095615;28;46720;-46
2023/11/14 03:07:30;;;;;;;;;0.67;0.00;;;;;17.36;100.00;100576.81;2095452;28;46416;-46
2023/11/14 03:08:30;;;;;;;;;2.25;1.00;;;;;17.36;100.00;100575.94;2104725;28;46923;-50
2023/11/14 03:09:30;;;;;;;;;0.00;0.00;;;;;17.36;100.00;100573.25;2104859;28;46868;-50
2023/11/14 03:10:31;;;;;;;;;2.00;1.00;;;;;17.35;100.00;100580.44;2104426;28;46192;-49
2023/11/14 03:11:32;;;;;;;;;2.33;1.00;;;;;17.35;100.00;100588.47;2098491;28;46637;-50
2023/11/14 03:12:32;;;;;;;;;3.67;0.00;;;;;17.35;100.00;100580.44;2095974;28;46398;-48
2023/11/14 03:13:32;;;;;;;;;1.67;1.00;;;;;17.34;100.00;100572.47;2104463;28;46234;-49
2023/11/14 03:14:33;;;;;;;;;0.00;0.00;;;;;17.34;100.00;100573.34;2102865;27;46272;-48
2023/11/14 03:15:33;;;;;;;;;4.00;1.00;;;;;17.36;100.00;100578.63;2104968;28;46143;-49
2023/11/14 03:16:33;;;;;;;;;1.00;0.33;;;;;17.34;100.00;100567.97;2104456;28;46201;-48
2023/11/14 03:17:33;;;;;;;;;0.00;0.00;;;;;17.33;100.00;100558.19;2104749;28;46942;-50
2023/11/14 03:18:34;;;;;;;;;0.67;0.00;;;;;17.35;100.00;100574.19;2104409;28;45418;-49
2023/11/14 03:19:39;;;;;;;;;2.00;1.00;;;;;17.35;100.00;100572.38;2104391;28;46288;-46
2023/11/14 03:20:39;;;;;;;;;4.00;1.00;;;;;17.32;100.00;100569.00;2104569;27;46339;-47
2023/11/14 03:21:43;;;;;;;;;3.00;0.67;;;;;17.35;100.00;100572.38;2096988;28;46160;-49
2023/11/14 03:22:44;;;;;;;;;0.50;0.00;;;;;17.38;100.00;100571.34;2102391;28;46544;-52
2023/11/14 03:23:44;;;;;;;;;2.67;2.00;;;;;17.38;100.00;100563.31;2104541;27;46848;-48
2023/11/14 03:24:44;;;;;;;;;3.00;1.00;;;;;17.39;100.00;100569.53;2101575;28;46309;-49
2023/11/14 03:25:45;;;;;;;;;1.33;1.33;;;;;17.39;100.00;100566.84;2102701;28;46537;-47
2023/11/14 03:26:45;;;;;;;;;0.00;0.00;;;;;17.40;100.00;100563.22;2105712;28;45676;-51
2023/11/14 03:27:46;;;;;;;;;2.00;1.33;;;;;17.38;100.00;100559.75;2104494;28;46279;-53
2023/11/14 03:28:46;;;;;;;;;2.00;0.33;;;;;17.38;100.00;100554.41;2096818;28;46387;-51
2023/11/14 03:29:46;;;;;;;;;2.00;0.00;;;;;17.38;100.00;100568.66;2097314;28;46460;-53
2023/11/14 03:30:47;;;;;;;;;0.00;0.00;;;;;17.33;100.00;100560.00;2106056;28;46547;-51
2023/11/14 03:31:47;;;;;;;;;0.67;0.00;;;;;17.31;100.00;100561.91;2106172;28;46641;-49
2023/11/14 03:32:48;;;;;;;;;3.00;1.00;;;;;17.35;100.00;100567.03;2097525;28;46607;-48
2023/11/14 03:33:48;;;;;;;;;3.00;1.67;;;;;17.38;100.00;100570.50;2100907;28;46275;-51
2023/11/14 03:34:49;;;;;;;;;1.00;1.00;;;;;17.40;100.00;100580.19;2106248;28;46027;-52
2023/11/14 03:35:49;;;;;;;;;3.67;1.00;;;;;17.41;100.00;100579.28;2105451;28;46451;-48
2023/11/14 03:36:53;;;;;;;;;1.33;1.00;;;;;17.43;100.00;100573.81;2104306;28;46168;-48
2023/11/14 03:37:53;;;;;;;;;1.00;1.00;;;;;17.37;100.00;100575.00;2097794;28;46984;-52
2023/11/14 03:38:54;;;;;;;;;1.33;0.33;;;;;17.40;100.00;100587.38;2103046;28;46513;-49
2023/11/14 03:39:54;;;;;;;;;1.00;1.00;;;;;17.38;100.00;100568.66;2105002;28;46383;-52
2023/11/14 03:40:55;;;;;;;;;1.00;1.00;;;;;17.39;100.00;100572.22;2105977;28;46328;-48
2023/11/14 03:41:55;;;;;;;;;5.00;2.25;;;;;17.38;100.00;100574.03;2105156;28;46542;-49
2023/11/14 03:42:55;;;;;;;;;2.33;2.00;;;;;17.42;100.00;100572.94;2105700;27;46674;-48
2023/11/14 03:43:56;;;;;;;;;4.33;1.00;;;;;17.42;100.00;100566.72;2094868;28;47026;-49
2023/11/14 03:44:56;;;;;;;;;0.00;0.00;;;;;17.43;100.00;100565.78;2096990;28;46284;-49
2023/11/14 03:45:56;;;;;;;;;1.00;1.00;;;;;17.42;100.00;100553.31;2098141;28;46858;-50
2023/11/14 03:46:57;;;;;;;;;1.33;0.33;;;;;17.42;100.00;100556.00;2103598;28;45936;-48
2023/11/14 03:47:57;;;;;;;;;1.67;1.00;;;;;17.44;100.00;100554.94;2105641;28;46530;-54
2023/11/14 03:48:58;;;;;;;;;0.00;0.00;;;;;17.42;100.00;100547.94;2105995;28;46440;-47
2023/11/14 03:49:58;;;;;;;;;2.00;1.33;;;;;17.40;100.00;100541.75;2102201;28;47199;-48
2023/11/14 03:50:59;;;;;;;;;1.33;1.00;;;;;17.39;100.00;100545.41;2097502;28;46527;-48
2023/11/14 03:51:59;;;;;;;;;0.33;0.33;;;;;17.41;100.00;100557.81;2101746;28;46147;-48
2023/11/14 03:52:59;;;;;;;;;1.67;1.67;;;;;17.42;100.00;100558.66;2099405;28;47018;-51
2023/11/14 03:54:00;;;;;;;;;1.00;1.00;;;;;17.42;100.00;100556.84;2096807;28;46424;-53
2023/11/14 03:55:00;;;;;;;;;0.00;0.00;;;;;17.44;100.00;100554.09;2105980;28;46165;-53
2023/11/14 03:56:00;;;;;;;;;2.67;1.00;;;;;17.42;100.00;100547.94;2105984;28;46170;-49
2023/11/14 03:57:01;;;;;;;;;3.33;2.33;;;;;17.42;100.00;100553.31;2087815;28;46207;-48
2023/11/14 03:58:02;;;;;;;;;1.67;0.00;;;;;17.42;100.00;100545.25;2087516;28;46822;-53
2023/11/14 03:59:02;;;;;;;;;2.25;1.00;;;;;17.41;100.00;100532.78;2097099;28;46444;-51
2023/11/14 04:00:04;;;;;;;;;0.00;0.00;;;;;17.40;100.00;100545.31;2090217;28;45713;-52
2023/11/14 04:01:05;;;;;;;;;6.25;2.50;;;;;17.39;100.00;100537.34;2098650;28;46856;-46
2023/11/14 04:02:05;;;;;;;;;1.00;1.00;;;;;17.39;100.00;100538.22;2100547;28;46491;-46
2023/11/14 04:03:05;;;;;;;;;3.00;2.33;;;;;17.39;100.00;100535.53;2105286;28;46608;-47
2023/11/14 04:04:06;;;;;;;;;1.00;0.00;;;;;17.40;100.00;100537.25;2105099;28;46588;-49
2023/11/14 04:05:06;;;;;;;;;3.00;0.67;;;;;17.41;100.00;100539.03;2105832;28;46659;-49
2023/11/14 04:06:10;;;;;;;;;2.67;2.67;;;;;17.41;100.00;100536.34;2105532;28;46198;-49
2023/11/14 04:07:11;;;;;;;;;0.25;0.00;;;;;17.40;100.00;100529.22;2105895;28;46354;-47
2023/11/14 04:08:11;;;;;;;;;3.00;1.00;;;;;17.40;100.00;100531.91;2096796;28;46254;-47
2023/11/14 04:09:12;;;;;;;;;1.00;1.00;;;;;17.39;100.00;100534.66;2100267;28;45633;-46
2023/11/14 04:10:12;;;;;;;;;1.00;1.00;;;;;17.35;100.00;100521.41;2105193;28;46079;-51
2023/11/14 04:11:13;;;;;;;;;1.00;1.00;;;;;17.36;100.00;100533.03;2105548;28;46223;-49
2023/11/14 04:12:13;;;;;;;;;1.67;0.00;;;;;17.36;100.00;100535.69;2096640;28;46187;-46
2023/11/14 04:13:14;;;;;;;;;0.00;0.00;;;;;17.36;100.00;100539.25;2080587;28;46275;-47
2023/11/14 04:14:15;;;;;;;;;3.67;1.67;;;;;17.39;100.00;100540.91;2088059;28;45924;-51
2023/11/14 04:15:15;;;;;;;;;2.00;1.25;;;;;17.40;100.00;100539.94;2105761;28;46776;-49
2023/11/14 04:16:15;;;;;;;;;1.33;1.00;;;;;17.41;100.00;100536.34;2105713;28;46544;-50
2023/11/14 04:17:16;;;;;;;;;1.33;1.33;;;;;17.42;100.00;100535.41;2096668;28;46408;-48
2023/11/14 04:18:16;;;;;;;;;0.67;0.67;;;;;17.42;100.00;100537.22;2096732;28;46103;-48
2023/11/14 04:19:16;;;;;;;;;2.00;1.00;;;;;17.43;100.00;100537.13;2095338;28;46167;-47
2023/11/14 04:20:17;;;;;;;;;3.33;1.00;;;;;17.42;100.00;100538.06;2096998;28;46655;-49
2023/11/14 04:21:20;;;;;;;;;5.00;2.00;;;;;17.43;100.00;100544.31;2105534;28;46053;-46
2023/11/14 04:22:20;;;;;;;;;1.25;0.75;;;;;17.43;100.00;100544.31;2103981;28;46473;-50
2023/11/14 04:23:21;;;;;;;;;0.67;0.67;;;;;17.43;100.00;100545.16;2087397;28;46265;-49
2023/11/14 04:24:23;;;;;;;;;1.67;1.00;;;;;17.41;100.00;100551.56;2086996;28;46605;-48
2023/11/14 04:25:23;;;;;;;;;3.25;0.00;;;;;17.39;100.00;100548.06;2097172;28;46456;-50
2023/11/14 04:26:23;;;;;;;;;4.00;2.00;;;;;17.39;100.00;100551.63;2098395;28;46862;-49
2023/11/14 04:27:24;;;;;;;;;0.67;0.67;;;;;17.39;100.00;100553.44;2105429;28;46296;-48
2023/11/14 04:28:24;;;;;;;;;1.00;1.00;;;;;17.38;100.00;100557.06;2105602;28;46574;-51
2023/11/14 04:29:25;;;;;;;;;1.00;1.00;;;;;17.37;100.00;100558.88;2105534;28;46261;-48
2023/11/14 04:30:25;;;;;;;;;1.33;1.33;;;;;17.38;100.00;100562.44;2105986;28;46334;-49
2023/11/14 04:31:25;;;;;;;;;1.00;1.00;;;;;17.37;100.00;100561.56;2105400;27;46014;-51
2023/11/14 04:32:26;;;;;;;;;2.33;1.00;;;;;17.36;100.00;100549.13;2096549;28;46604;-50
2023/11/14 04:33:26;;;;;;;;;2.00;0.33;;;;;17.36;100.00;100549.97;2096736;28;46904;-49
2023/11/14 04:34:27;;;;;;;;;2.33;0.33;;;;;17.36;100.00;100555.34;2097759;28;46811;-46
2023/11/14 04:35:27;;;;;;;;;4.00;2.00;;;;;17.36;100.00;100554.47;2101909;27;46360;-48
2023/11/14 04:36:29;;;;;;;;;3.00;0.00;;;;;17.36;100.00;100557.16;2105755;28;46356;-49
2023/11/14 04:37:29;;;;;;;;;1.50;1.00;;;;;17.38;100.00;100551.72;2105681;28;46531;-48
2023/11/14 04:38:29;;;;;;;;;2.67;1.33;;;;;17.37;100.00;100561.56;2105673;28;46574;-51
2023/11/14 04:39:30;;;;;;;;;2.33;1.00;;;;;17.38;100.00;100571.34;2105916;28;46653;-47